sensor_id;sensor_type;location;lat;lon;timestamp;P1;durP1;ratioP1;P2;durP2;ratioP2
17414;SDS011;8825;48.086;16.426;2022-11-02T00:00:14;1.00;;;1.00;;
17414;SDS011;8825;48.086;16.426;2022-11-02T00:02:41;2.10;;;1.13;;
17414;SDS011;8825;48.086;16.426;2022-11-02T00:05:10;0.80;;;0.80;;
17414;SDS011;8825;48.086;16.426;2022-11-02T00:07:39;1.37;;;1.33;;
17414;SDS011;8825;48.086;16.426;2022-11-02T00:10:07;1.10;;;1.10;;
17414;SDS011;8825;48.086;16.426;2022-11-02T00:12:36;1.80;;;1.70;;
17414;SDS011;8825;48.086;16.426;2022-11-02T00:18:26;1.73;;;1.63;;
17414;SDS011;8825;48.086;16.426;2022-11-02T00:24:15;2.70;;;2.20;;
17414;SDS011;8825;48.086;16.426;2022-11-02T00:30:06;1.67;;;1.57;;
17414;SDS011;8825;48.086;16.426;2022-11-02T00:44:50;1.27;;;1.17;;
17414;SDS011;8825;48.086;16.426;2022-11-02T00:50:40;0.80;;;0.70;;
17414;SDS011;8825;48.086;16.426;2022-11-02T00:53:07;0.57;;;0.57;;
17414;SDS011;8825;48.086;16.426;2022-11-02T00:55:35;1.83;;;1.77;;
17414;SDS011;8825;48.086;16.426;2022-11-02T00:58:03;1.37;;;1.37;;
17414;SDS011;8825;48.086;16.426;2022-11-02T01:00:31;1.63;;;1.53;;
17414;SDS011;8825;48.086;16.426;2022-11-02T01:02:59;6.43;;;2.70;;
17414;SDS011;8825;48.086;16.426;2022-11-02T01:08:49;1.80;;;1.70;;
17414;SDS011;8825;48.086;16.426;2022-11-02T01:14:39;0.80;;;0.80;;
17414;SDS011;8825;48.086;16.426;2022-11-02T01:20:29;2.87;;;1.47;;
17414;SDS011;8825;48.086;16.426;2022-11-02T01:26:19;3.87;;;2.07;;
17414;SDS011;8825;48.086;16.426;2022-11-02T01:28:47;2.73;;;2.30;;
17414;SDS011;8825;48.086;16.426;2022-11-02T01:34:37;1.53;;;1.53;;
17414;SDS011;8825;48.086;16.426;2022-11-02T01:40:04;1.13;;;1.13;;
17414;SDS011;8825;48.086;16.426;2022-11-02T01:46:03;1.63;;;1.53;;
17414;SDS011;8825;48.086;16.426;2022-11-02T01:48:33;2.60;;;1.97;;
17414;SDS011;8825;48.086;16.426;2022-11-02T01:51:01;0.63;;;0.63;;
17414;SDS011;8825;48.086;16.426;2022-11-02T01:53:29;0.60;;;0.60;;
17414;SDS011;8825;48.086;16.426;2022-11-02T01:55:59;2.73;;;2.47;;
17414;SDS011;8825;48.086;16.426;2022-11-02T01:58:28;0.80;;;0.80;;
17414;SDS011;8825;48.086;16.426;2022-11-02T02:00:58;2.77;;;2.57;;
17414;SDS011;8825;48.086;16.426;2022-11-02T02:03:26;1.77;;;1.67;;
17414;SDS011;8825;48.086;16.426;2022-11-02T02:05:57;1.30;;;1.30;;
17414;SDS011;8825;48.086;16.426;2022-11-02T02:08:26;6.33;;;1.67;;
17414;SDS011;8825;48.086;16.426;2022-11-02T02:10:56;1.50;;;1.40;;
17414;SDS011;8825;48.086;16.426;2022-11-02T02:13:25;1.37;;;1.27;;
17414;SDS011;8825;48.086;16.426;2022-11-02T02:18:30;2.47;;;2.27;;
17414;SDS011;8825;48.086;16.426;2022-11-02T02:21:10;0.90;;;0.90;;
17414;SDS011;8825;48.086;16.426;2022-11-02T02:29:40;1.77;;;1.67;;
17414;SDS011;8825;48.086;16.426;2022-11-02T02:35:45;2.10;;;1.87;;
17414;SDS011;8825;48.086;16.426;2022-11-02T02:41:42;0.90;;;0.90;;
17414;SDS011;8825;48.086;16.426;2022-11-02T02:44:15;1.60;;;1.50;;
17414;SDS011;8825;48.086;16.426;2022-11-02T02:50:22;1.57;;;1.47;;
17414;SDS011;8825;48.086;16.426;2022-11-02T02:56:08;3.23;;;1.13;;
17414;SDS011;8825;48.086;16.426;2022-11-02T02:58:42;2.30;;;2.13;;
17414;SDS011;8825;48.086;16.426;2022-11-02T03:01:09;1.67;;;1.57;;
17414;SDS011;8825;48.086;16.426;2022-11-02T03:03:39;2.50;;;2.30;;
17414;SDS011;8825;48.086;16.426;2022-11-02T03:21:16;1.73;;;1.63;;
17414;SDS011;8825;48.086;16.426;2022-11-02T03:23:49;1.23;;;1.23;;
17414;SDS011;8825;48.086;16.426;2022-11-02T03:29:13;1.87;;;1.77;;
17414;SDS011;8825;48.086;16.426;2022-11-02T03:35:14;1.77;;;1.57;;
17414;SDS011;8825;48.086;16.426;2022-11-02T03:41:08;2.10;;;2.00;;
17414;SDS011;8825;48.086;16.426;2022-11-02T03:43:38;1.47;;;1.47;;
17414;SDS011;8825;48.086;16.426;2022-11-02T03:46:07;0.77;;;0.77;;
17414;SDS011;8825;48.086;16.426;2022-11-02T03:48:39;1.50;;;1.40;;
17414;SDS011;8825;48.086;16.426;2022-11-02T03:51:10;1.40;;;1.00;;
17414;SDS011;8825;48.086;16.426;2022-11-02T03:57:00;0.63;;;0.63;;
17414;SDS011;8825;48.086;16.426;2022-11-02T03:59:30;0.77;;;0.77;;
17414;SDS011;8825;48.086;16.426;2022-11-02T04:05:19;1.00;;;1.00;;
17414;SDS011;8825;48.086;16.426;2022-11-02T04:11:16;0.93;;;0.93;;
17414;SDS011;8825;48.086;16.426;2022-11-02T04:14:02;1.57;;;1.47;;
17414;SDS011;8825;48.086;16.426;2022-11-02T04:20:09;1.23;;;1.23;;
17414;SDS011;8825;48.086;16.426;2022-11-02T04:25:59;1.87;;;1.57;;
17414;SDS011;8825;48.086;16.426;2022-11-02T04:31:49;1.07;;;1.07;;
17414;SDS011;8825;48.086;16.426;2022-11-02T04:34:18;1.27;;;1.27;;
17414;SDS011;8825;48.086;16.426;2022-11-02T04:36:45;1.37;;;1.27;;
17414;SDS011;8825;48.086;16.426;2022-11-02T04:39:13;1.33;;;1.33;;
17414;SDS011;8825;48.086;16.426;2022-11-02T04:41:41;1.50;;;1.50;;
17414;SDS011;8825;48.086;16.426;2022-11-02T04:44:09;1.53;;;1.43;;
17414;SDS011;8825;48.086;16.426;2022-11-02T04:46:42;1.77;;;1.63;;
17414;SDS011;8825;48.086;16.426;2022-11-02T04:49:10;0.80;;;0.80;;
17414;SDS011;8825;48.086;16.426;2022-11-02T04:51:39;0.80;;;0.80;;
17414;SDS011;8825;48.086;16.426;2022-11-02T04:54:07;2.57;;;2.03;;
17414;SDS011;8825;48.086;16.426;2022-11-02T04:56:35;1.07;;;1.07;;
17414;SDS011;8825;48.086;16.426;2022-11-02T04:59:02;1.40;;;1.40;;
17414;SDS011;8825;48.086;16.426;2022-11-02T05:01:30;1.63;;;1.53;;
17414;SDS011;8825;48.086;16.426;2022-11-02T05:07:20;2.33;;;1.53;;
17414;SDS011;8825;48.086;16.426;2022-11-02T05:09:47;1.60;;;1.23;;
17414;SDS011;8825;48.086;16.426;2022-11-02T05:15:38;1.70;;;1.23;;
17414;SDS011;8825;48.086;16.426;2022-11-02T05:21:28;2.23;;;1.50;;
17414;SDS011;8825;48.086;16.426;2022-11-02T05:27:18;0.90;;;0.90;;
17414;SDS011;8825;48.086;16.426;2022-11-02T05:33:08;1.20;;;1.20;;
17414;SDS011;8825;48.086;16.426;2022-11-02T05:35:36;1.30;;;1.30;;
17414;SDS011;8825;48.086;16.426;2022-11-02T05:38:03;2.30;;;2.20;;
17414;SDS011;8825;48.086;16.426;2022-11-02T05:40:31;1.57;;;1.47;;
17414;SDS011;8825;48.086;16.426;2022-11-02T05:45:59;1.23;;;1.10;;
17414;SDS011;8825;48.086;16.426;2022-11-02T05:51:49;1.57;;;1.47;;
17414;SDS011;8825;48.086;16.426;2022-11-02T05:57:39;1.03;;;1.03;;
17414;SDS011;8825;48.086;16.426;2022-11-02T06:00:07;1.70;;;1.60;;
17414;SDS011;8825;48.086;16.426;2022-11-02T06:06:00;1.10;;;1.10;;
17414;SDS011;8825;48.086;16.426;2022-11-02T06:11:51;2.30;;;2.20;;
17414;SDS011;8825;48.086;16.426;2022-11-02T06:17:41;1.30;;;1.20;;
17414;SDS011;8825;48.086;16.426;2022-11-02T06:20:09;1.37;;;1.37;;
17414;SDS011;8825;48.086;16.426;2022-11-02T06:22:38;1.00;;;1.00;;
17414;SDS011;8825;48.086;16.426;2022-11-02T06:25:06;1.67;;;1.57;;
17414;SDS011;8825;48.086;16.426;2022-11-02T06:27:35;1.43;;;1.33;;
17414;SDS011;8825;48.086;16.426;2022-11-02T06:30:03;1.03;;;1.03;;
17414;SDS011;8825;48.086;16.426;2022-11-02T06:32:32;0.80;;;0.80;;
17414;SDS011;8825;48.086;16.426;2022-11-02T06:35:00;6.47;;;1.97;;
17414;SDS011;8825;48.086;16.426;2022-11-02T06:37:30;2.07;;;1.97;;
17414;SDS011;8825;48.086;16.426;2022-11-02T06:39:59;0.90;;;0.90;;
17414;SDS011;8825;48.086;16.426;2022-11-02T06:42:27;1.37;;;1.37;;
17414;SDS011;8825;48.086;16.426;2022-11-02T06:44:55;1.73;;;1.67;;
17414;SDS011;8825;48.086;16.426;2022-11-02T06:47:25;1.43;;;1.37;;
17414;SDS011;8825;48.086;16.426;2022-11-02T06:50:01;1.47;;;1.37;;
17414;SDS011;8825;48.086;16.426;2022-11-02T06:52:30;0.73;;;0.73;;
17414;SDS011;8825;48.086;16.426;2022-11-02T06:54:58;1.10;;;1.10;;
17414;SDS011;8825;48.086;16.426;2022-11-02T06:57:26;0.90;;;0.90;;
17414;SDS011;8825;48.086;16.426;2022-11-02T06:59:54;0.60;;;0.60;;
17414;SDS011;8825;48.086;16.426;2022-11-02T07:02:23;1.87;;;1.73;;
17414;SDS011;8825;48.086;16.426;2022-11-02T07:04:51;1.70;;;1.40;;
17414;SDS011;8825;48.086;16.426;2022-11-02T07:07:18;0.73;;;0.73;;
17414;SDS011;8825;48.086;16.426;2022-11-02T07:09:46;1.20;;;1.20;;
17414;SDS011;8825;48.086;16.426;2022-11-02T07:12:14;0.80;;;0.80;;
17414;SDS011;8825;48.086;16.426;2022-11-02T07:18:03;1.63;;;1.53;;
17414;SDS011;8825;48.086;16.426;2022-11-02T07:20:33;2.37;;;1.90;;
17414;SDS011;8825;48.086;16.426;2022-11-02T07:26:22;1.67;;;1.57;;
17414;SDS011;8825;48.086;16.426;2022-11-02T07:32:13;1.33;;;1.33;;
17414;SDS011;8825;48.086;16.426;2022-11-02T07:38:04;0.70;;;0.70;;
17414;SDS011;8825;48.086;16.426;2022-11-02T07:43:55;1.10;;;1.10;;
17414;SDS011;8825;48.086;16.426;2022-11-02T07:46:23;3.90;;;2.67;;
17414;SDS011;8825;48.086;16.426;2022-11-02T07:52:13;1.07;;;1.07;;
17414;SDS011;8825;48.086;16.426;2022-11-02T07:58:04;0.97;;;0.97;;
17414;SDS011;8825;48.086;16.426;2022-11-02T08:00:34;1.23;;;1.23;;
17414;SDS011;8825;48.086;16.426;2022-11-02T08:03:04;2.60;;;1.53;;
17414;SDS011;8825;48.086;16.426;2022-11-02T08:05:33;0.80;;;0.80;;
17414;SDS011;8825;48.086;16.426;2022-11-02T08:08:09;0.77;;;0.77;;
17414;SDS011;8825;48.086;16.426;2022-11-02T08:10:34;0.97;;;0.90;;
17414;SDS011;8825;48.086;16.426;2022-11-02T08:13:03;0.73;;;0.73;;
17414;SDS011;8825;48.086;16.426;2022-11-02T08:15:31;1.73;;;1.63;;
17414;SDS011;8825;48.086;16.426;2022-11-02T08:18:21;1.57;;;1.43;;
17414;SDS011;8825;48.086;16.426;2022-11-02T08:20:35;0.77;;;0.77;;
17414;SDS011;8825;48.086;16.426;2022-11-02T08:23:03;1.73;;;1.63;;
17414;SDS011;8825;48.086;16.426;2022-11-02T08:25:32;0.93;;;0.93;;
17414;SDS011;8825;48.086;16.426;2022-11-02T08:28:01;1.33;;;1.33;;
17414;SDS011;8825;48.086;16.426;2022-11-02T08:30:30;1.50;;;1.50;;
17414;SDS011;8825;48.086;16.426;2022-11-02T08:33:02;1.07;;;1.07;;
17414;SDS011;8825;48.086;16.426;2022-11-02T08:35:31;1.17;;;1.17;;
17414;SDS011;8825;48.086;16.426;2022-11-02T08:38:01;1.10;;;1.10;;
17414;SDS011;8825;48.086;16.426;2022-11-02T08:40:29;1.73;;;1.63;;
17414;SDS011;8825;48.086;16.426;2022-11-02T08:43:07;2.17;;;2.00;;
17414;SDS011;8825;48.086;16.426;2022-11-02T08:45:37;12.00;;;2.20;;
17414;SDS011;8825;48.086;16.426;2022-11-02T08:48:06;1.57;;;1.50;;
17414;SDS011;8825;48.086;16.426;2022-11-02T08:50:34;1.10;;;1.00;;
17414;SDS011;8825;48.086;16.426;2022-11-02T08:53:03;1.07;;;1.07;;
17414;SDS011;8825;48.086;16.426;2022-11-02T08:55:30;2.27;;;1.77;;
17414;SDS011;8825;48.086;16.426;2022-11-02T08:57:58;2.87;;;2.47;;
17414;SDS011;8825;48.086;16.426;2022-11-02T09:00:27;1.07;;;1.07;;
17414;SDS011;8825;48.086;16.426;2022-11-02T09:06:18;2.97;;;1.30;;
17414;SDS011;8825;48.086;16.426;2022-11-02T09:12:08;1.20;;;1.10;;
17414;SDS011;8825;48.086;16.426;2022-11-02T09:17:58;2.57;;;1.30;;
17414;SDS011;8825;48.086;16.426;2022-11-02T09:20:26;0.50;;;0.50;;
17414;SDS011;8825;48.086;16.426;2022-11-02T09:26:16;0.50;;;0.50;;
17414;SDS011;8825;48.086;16.426;2022-11-02T09:32:06;0.97;;;0.97;;
17414;SDS011;8825;48.086;16.426;2022-11-02T09:37:56;16.27;;;2.33;;
17414;SDS011;8825;48.086;16.426;2022-11-02T09:47:26;1.47;;;1.40;;
17414;SDS011;8825;48.086;16.426;2022-11-02T09:52:58;0.60;;;0.60;;
17414;SDS011;8825;48.086;16.426;2022-11-02T09:58:55;0.57;;;0.57;;
17414;SDS011;8825;48.086;16.426;2022-11-02T10:04:52;1.93;;;1.77;;
17414;SDS011;8825;48.086;16.426;2022-11-02T10:07:24;0.77;;;0.57;;
17414;SDS011;8825;48.086;16.426;2022-11-02T10:16:02;2.50;;;0.87;;
17414;SDS011;8825;48.086;16.426;2022-11-02T10:18:30;0.20;;;0.20;;
17414;SDS011;8825;48.086;16.426;2022-11-02T10:21:00;0.93;;;0.93;;
17414;SDS011;8825;48.086;16.426;2022-11-02T10:26:23;1.20;;;1.10;;
17414;SDS011;8825;48.086;16.426;2022-11-02T10:28:58;0.47;;;0.47;;
17414;SDS011;8825;48.086;16.426;2022-11-02T10:31:29;0.47;;;0.47;;
17414;SDS011;8825;48.086;16.426;2022-11-02T10:34:09;2.40;;;1.13;;
17414;SDS011;8825;48.086;16.426;2022-11-02T10:36:53;0.43;;;0.43;;
17414;SDS011;8825;48.086;16.426;2022-11-02T10:54:39;0.23;;;0.23;;
17414;SDS011;8825;48.086;16.426;2022-11-02T10:57:11;0.20;;;0.20;;
17414;SDS011;8825;48.086;16.426;2022-11-02T11:09:04;0.50;;;0.40;;
17414;SDS011;8825;48.086;16.426;2022-11-02T11:12:04;0.87;;;0.73;;
17414;SDS011;8825;48.086;16.426;2022-11-02T11:14:26;0.50;;;0.50;;
17414;SDS011;8825;48.086;16.426;2022-11-02T11:17:20;0.33;;;0.33;;
17414;SDS011;8825;48.086;16.426;2022-11-02T11:23:24;0.43;;;0.43;;
17414;SDS011;8825;48.086;16.426;2022-11-02T11:29:21;0.27;;;0.27;;
17414;SDS011;8825;48.086;16.426;2022-11-02T11:31:49;0.47;;;0.47;;
17414;SDS011;8825;48.086;16.426;2022-11-02T11:36:53;0.20;;;0.20;;
17414;SDS011;8825;48.086;16.426;2022-11-02T11:39:32;0.33;;;0.33;;
17414;SDS011;8825;48.086;16.426;2022-11-02T11:42:02;0.40;;;0.40;;
17414;SDS011;8825;48.086;16.426;2022-11-02T11:44:31;0.30;;;0.30;;
17414;SDS011;8825;48.086;16.426;2022-11-02T11:47:00;0.20;;;0.20;;
17414;SDS011;8825;48.086;16.426;2022-11-02T11:49:32;0.30;;;0.30;;
17414;SDS011;8825;48.086;16.426;2022-11-02T11:52:01;0.30;;;0.30;;
17414;SDS011;8825;48.086;16.426;2022-11-02T11:54:31;0.20;;;0.20;;
17414;SDS011;8825;48.086;16.426;2022-11-02T12:03:04;0.30;;;0.30;;
17414;SDS011;8825;48.086;16.426;2022-11-02T12:05:56;0.30;;;0.30;;
17414;SDS011;8825;48.086;16.426;2022-11-02T12:13:36;0.20;;;0.20;;
17414;SDS011;8825;48.086;16.426;2022-11-02T12:16:09;0.57;;;0.57;;
17414;SDS011;8825;48.086;16.426;2022-11-02T12:24:24;0.47;;;0.47;;
17414;SDS011;8825;48.086;16.426;2022-11-02T12:26:56;0.40;;;0.40;;
17414;SDS011;8825;48.086;16.426;2022-11-02T12:29:40;0.47;;;0.47;;
17414;SDS011;8825;48.086;16.426;2022-11-02T12:32:20;0.40;;;0.40;;
17414;SDS011;8825;48.086;16.426;2022-11-02T12:43:39;0.20;;;0.20;;
17414;SDS011;8825;48.086;16.426;2022-11-02T12:54:18;0.20;;;0.20;;
17414;SDS011;8825;48.086;16.426;2022-11-02T12:56:49;0.10;;;0.10;;
17414;SDS011;8825;48.086;16.426;2022-11-02T12:59:22;0.10;;;0.10;;
17414;SDS011;8825;48.086;16.426;2022-11-02T13:01:56;0.30;;;0.30;;
17414;SDS011;8825;48.086;16.426;2022-11-02T13:04:32;0.20;;;0.20;;
17414;SDS011;8825;48.086;16.426;2022-11-02T13:07:19;0.20;;;0.20;;
17414;SDS011;8825;48.086;16.426;2022-11-02T13:09:52;0.30;;;0.30;;
17414;SDS011;8825;48.086;16.426;2022-11-02T13:12:31;0.30;;;0.30;;
17414;SDS011;8825;48.086;16.426;2022-11-02T13:15:01;0.30;;;0.30;;
17414;SDS011;8825;48.086;16.426;2022-11-02T13:17:41;0.30;;;0.30;;
17414;SDS011;8825;48.086;16.426;2022-11-02T13:23:11;0.50;;;0.50;;
17414;SDS011;8825;48.086;16.426;2022-11-02T13:25:35;0.20;;;0.20;;
17414;SDS011;8825;48.086;16.426;2022-11-02T13:28:05;0.30;;;0.30;;
17414;SDS011;8825;48.086;16.426;2022-11-02T13:30:38;0.67;;;0.67;;
17414;SDS011;8825;48.086;16.426;2022-11-02T13:33:16;0.30;;;0.30;;
17414;SDS011;8825;48.086;16.426;2022-11-02T13:35:40;0.20;;;0.20;;
17414;SDS011;8825;48.086;16.426;2022-11-02T13:40:57;0.20;;;0.20;;
17414;SDS011;8825;48.086;16.426;2022-11-02T13:46:31;0.33;;;0.33;;
17414;SDS011;8825;48.086;16.426;2022-11-02T13:49:19;0.27;;;0.27;;
17414;SDS011;8825;48.086;16.426;2022-11-02T13:51:50;0.40;;;0.40;;
17414;SDS011;8825;48.086;16.426;2022-11-02T13:56:50;0.50;;;0.50;;
17414;SDS011;8825;48.086;16.426;2022-11-02T13:59:30;0.20;;;0.20;;
17414;SDS011;8825;48.086;16.426;2022-11-02T14:02:01;0.23;;;0.23;;
17414;SDS011;8825;48.086;16.426;2022-11-02T14:04:40;0.40;;;0.40;;
17414;SDS011;8825;48.086;16.426;2022-11-02T14:07:28;0.37;;;0.37;;
17414;SDS011;8825;48.086;16.426;2022-11-02T14:09:44;0.37;;;0.37;;
17414;SDS011;8825;48.086;16.426;2022-11-02T14:20:45;0.50;;;0.50;;
17414;SDS011;8825;48.086;16.426;2022-11-02T14:25:53;0.20;;;0.20;;
17414;SDS011;8825;48.086;16.426;2022-11-02T14:42:14;0.73;;;0.30;;
17414;SDS011;8825;48.086;16.426;2022-11-02T14:44:58;0.27;;;0.27;;
17414;SDS011;8825;48.086;16.426;2022-11-02T14:47:28;0.30;;;0.30;;
17414;SDS011;8825;48.086;16.426;2022-11-02T14:50:02;0.40;;;0.40;;
17414;SDS011;8825;48.086;16.426;2022-11-02T14:52:34;0.60;;;0.60;;
17414;SDS011;8825;48.086;16.426;2022-11-02T14:55:07;0.20;;;0.20;;
17414;SDS011;8825;48.086;16.426;2022-11-02T14:57:37;0.50;;;0.50;;
17414;SDS011;8825;48.086;16.426;2022-11-02T15:00:19;0.53;;;0.53;;
17414;SDS011;8825;48.086;16.426;2022-11-02T15:02:54;0.30;;;0.30;;
17414;SDS011;8825;48.086;16.426;2022-11-02T15:05:31;0.30;;;0.30;;
17414;SDS011;8825;48.086;16.426;2022-11-02T15:08:03;6.50;;;1.63;;
17414;SDS011;8825;48.086;16.426;2022-11-02T15:23:54;0.40;;;0.40;;
17414;SDS011;8825;48.086;16.426;2022-11-02T15:26:48;0.50;;;0.50;;
17414;SDS011;8825;48.086;16.426;2022-11-02T15:29:39;0.70;;;0.70;;
17414;SDS011;8825;48.086;16.426;2022-11-02T15:32:10;0.40;;;0.40;;
17414;SDS011;8825;48.086;16.426;2022-11-02T15:35:01;0.40;;;0.40;;
17414;SDS011;8825;48.086;16.426;2022-11-02T15:37:17;0.40;;;0.40;;
17414;SDS011;8825;48.086;16.426;2022-11-02T15:39:50;0.30;;;0.30;;
17414;SDS011;8825;48.086;16.426;2022-11-02T15:45:25;0.30;;;0.30;;
17414;SDS011;8825;48.086;16.426;2022-11-02T15:50:50;0.50;;;0.50;;
17414;SDS011;8825;48.086;16.426;2022-11-02T15:53:38;0.63;;;0.63;;
17414;SDS011;8825;48.086;16.426;2022-11-02T15:59:48;0.30;;;0.30;;
17414;SDS011;8825;48.086;16.426;2022-11-02T16:01:28;0.30;;;0.30;;
17414;SDS011;8825;48.086;16.426;2022-11-02T16:03:57;0.40;;;0.40;;
17414;SDS011;8825;48.086;16.426;2022-11-02T16:06:29;0.37;;;0.37;;
17414;SDS011;8825;48.086;16.426;2022-11-02T16:09:00;1.20;;;1.03;;
17414;SDS011;8825;48.086;16.426;2022-11-02T16:11:29;0.40;;;0.40;;
17414;SDS011;8825;48.086;16.426;2022-11-02T16:14:13;0.40;;;0.40;;
17414;SDS011;8825;48.086;16.426;2022-11-02T16:16:33;0.40;;;0.40;;
17414;SDS011;8825;48.086;16.426;2022-11-02T16:19:03;0.40;;;0.40;;
17414;SDS011;8825;48.086;16.426;2022-11-02T16:21:31;0.50;;;0.50;;
17414;SDS011;8825;48.086;16.426;2022-11-02T16:23:58;0.30;;;0.30;;
17414;SDS011;8825;48.086;16.426;2022-11-02T16:26:26;0.60;;;0.60;;
17414;SDS011;8825;48.086;16.426;2022-11-02T16:28:56;0.40;;;0.40;;
17414;SDS011;8825;48.086;16.426;2022-11-02T16:31:26;1.33;;;0.83;;
17414;SDS011;8825;48.086;16.426;2022-11-02T16:33:58;0.50;;;0.50;;
17414;SDS011;8825;48.086;16.426;2022-11-02T16:36:29;0.30;;;0.30;;
17414;SDS011;8825;48.086;16.426;2022-11-02T16:39:15;0.50;;;0.50;;
17414;SDS011;8825;48.086;16.426;2022-11-02T16:41:48;0.50;;;0.50;;
17414;SDS011;8825;48.086;16.426;2022-11-02T16:44:25;0.60;;;0.60;;
17414;SDS011;8825;48.086;16.426;2022-11-02T16:46:58;0.40;;;0.40;;
17414;SDS011;8825;48.086;16.426;2022-11-02T16:52:22;0.50;;;0.50;;
17414;SDS011;8825;48.086;16.426;2022-11-02T16:54:59;0.40;;;0.40;;
17414;SDS011;8825;48.086;16.426;2022-11-02T16:57:28;1.70;;;0.80;;
17414;SDS011;8825;48.086;16.426;2022-11-02T17:00:00;0.77;;;0.77;;
17414;SDS011;8825;48.086;16.426;2022-11-02T17:02:36;0.40;;;0.40;;
17414;SDS011;8825;48.086;16.426;2022-11-02T17:05:02;0.57;;;0.47;;
17414;SDS011;8825;48.086;16.426;2022-11-02T17:07:31;0.50;;;0.50;;
17414;SDS011;8825;48.086;16.426;2022-11-02T17:10:03;0.80;;;0.80;;
17414;SDS011;8825;48.086;16.426;2022-11-02T17:12:33;0.50;;;0.50;;
17414;SDS011;8825;48.086;16.426;2022-11-02T17:17:46;0.80;;;0.80;;
17414;SDS011;8825;48.086;16.426;2022-11-02T17:23:06;0.60;;;0.60;;
17414;SDS011;8825;48.086;16.426;2022-11-02T17:25:22;0.40;;;0.40;;
17414;SDS011;8825;48.086;16.426;2022-11-02T17:27:51;0.73;;;0.73;;
17414;SDS011;8825;48.086;16.426;2022-11-02T17:33:07;0.50;;;0.50;;
17414;SDS011;8825;48.086;16.426;2022-11-02T17:35:52;0.77;;;0.77;;
17414;SDS011;8825;48.086;16.426;2022-11-02T17:38:23;0.40;;;0.40;;
17414;SDS011;8825;48.086;16.426;2022-11-02T17:40:52;0.37;;;0.37;;
17414;SDS011;8825;48.086;16.426;2022-11-02T17:43:21;0.70;;;0.70;;
17414;SDS011;8825;48.086;16.426;2022-11-02T17:45:56;5.70;;;1.10;;
17414;SDS011;8825;48.086;16.426;2022-11-02T17:48:25;0.80;;;0.80;;
17414;SDS011;8825;48.086;16.426;2022-11-02T17:50:56;0.43;;;0.43;;
17414;SDS011;8825;48.086;16.426;2022-11-02T17:53:25;0.50;;;0.50;;
17414;SDS011;8825;48.086;16.426;2022-11-02T17:55:53;0.40;;;0.40;;
17414;SDS011;8825;48.086;16.426;2022-11-02T17:58:21;0.60;;;0.60;;
17414;SDS011;8825;48.086;16.426;2022-11-02T18:00:48;0.30;;;0.30;;
17414;SDS011;8825;48.086;16.426;2022-11-02T18:03:17;0.30;;;0.30;;
17414;SDS011;8825;48.086;16.426;2022-11-02T18:05:46;0.40;;;0.40;;
17414;SDS011;8825;48.086;16.426;2022-11-02T18:08:17;0.33;;;0.33;;
17414;SDS011;8825;48.086;16.426;2022-11-02T18:10:45;0.40;;;0.40;;
17414;SDS011;8825;48.086;16.426;2022-11-02T18:13:16;0.50;;;0.50;;
17414;SDS011;8825;48.086;16.426;2022-11-02T18:15:46;0.63;;;0.63;;
17414;SDS011;8825;48.086;16.426;2022-11-02T18:18:15;0.40;;;0.40;;
17414;SDS011;8825;48.086;16.426;2022-11-02T18:20:42;0.30;;;0.30;;
17414;SDS011;8825;48.086;16.426;2022-11-02T18:23:14;0.47;;;0.47;;
17414;SDS011;8825;48.086;16.426;2022-11-02T18:25:44;0.40;;;0.40;;
17414;SDS011;8825;48.086;16.426;2022-11-02T18:28:11;0.30;;;0.30;;
17414;SDS011;8825;48.086;16.426;2022-11-02T18:30:44;0.60;;;0.60;;
17414;SDS011;8825;48.086;16.426;2022-11-02T18:33:12;0.50;;;0.50;;
17414;SDS011;8825;48.086;16.426;2022-11-02T18:35:40;0.43;;;0.43;;
17414;SDS011;8825;48.086;16.426;2022-11-02T18:38:08;0.30;;;0.30;;
17414;SDS011;8825;48.086;16.426;2022-11-02T18:40:36;0.73;;;0.67;;
17414;SDS011;8825;48.086;16.426;2022-11-02T18:43:04;0.37;;;0.37;;
17414;SDS011;8825;48.086;16.426;2022-11-02T18:45:31;0.40;;;0.40;;
17414;SDS011;8825;48.086;16.426;2022-11-02T18:47:59;0.50;;;0.50;;
17414;SDS011;8825;48.086;16.426;2022-11-02T18:50:26;0.47;;;0.47;;
17414;SDS011;8825;48.086;16.426;2022-11-02T18:52:54;0.40;;;0.40;;
17414;SDS011;8825;48.086;16.426;2022-11-02T18:55:21;0.43;;;0.43;;
17414;SDS011;8825;48.086;16.426;2022-11-02T18:57:49;0.60;;;0.60;;
17414;SDS011;8825;48.086;16.426;2022-11-02T19:00:16;1.23;;;1.13;;
17414;SDS011;8825;48.086;16.426;2022-11-02T19:02:44;0.50;;;0.50;;
17414;SDS011;8825;48.086;16.426;2022-11-02T19:05:11;0.30;;;0.30;;
17414;SDS011;8825;48.086;16.426;2022-11-02T19:07:58;1.37;;;1.33;;
17414;SDS011;8825;48.086;16.426;2022-11-02T19:10:44;1.13;;;0.83;;
17414;SDS011;8825;48.086;16.426;2022-11-02T19:13:13;0.40;;;0.40;;
17414;SDS011;8825;48.086;16.426;2022-11-02T19:15:40;0.43;;;0.43;;
17414;SDS011;8825;48.086;16.426;2022-11-02T19:18:08;0.50;;;0.50;;
17414;SDS011;8825;48.086;16.426;2022-11-02T19:20:35;0.50;;;0.50;;
17414;SDS011;8825;48.086;16.426;2022-11-02T19:23:03;0.60;;;0.60;;
17414;SDS011;8825;48.086;16.426;2022-11-02T19:25:31;0.60;;;0.60;;
17414;SDS011;8825;48.086;16.426;2022-11-02T19:27:58;0.30;;;0.30;;
17414;SDS011;8825;48.086;16.426;2022-11-02T19:30:26;0.70;;;0.70;;
17414;SDS011;8825;48.086;16.426;2022-11-02T19:32:53;0.63;;;0.63;;
17414;SDS011;8825;48.086;16.426;2022-11-02T19:35:22;0.80;;;0.80;;
17414;SDS011;8825;48.086;16.426;2022-11-02T19:37:50;0.60;;;0.60;;
17414;SDS011;8825;48.086;16.426;2022-11-02T19:40:20;1.03;;;1.03;;
17414;SDS011;8825;48.086;16.426;2022-11-02T19:42:48;0.93;;;0.93;;
17414;SDS011;8825;48.086;16.426;2022-11-02T19:45:15;2.33;;;1.43;;
17414;SDS011;8825;48.086;16.426;2022-11-02T19:47:43;0.60;;;0.60;;
17414;SDS011;8825;48.086;16.426;2022-11-02T19:50:10;1.00;;;1.00;;
17414;SDS011;8825;48.086;16.426;2022-11-02T19:52:38;1.03;;;1.03;;
17414;SDS011;8825;48.086;16.426;2022-11-02T19:55:05;0.97;;;0.93;;
17414;SDS011;8825;48.086;16.426;2022-11-02T19:57:33;1.17;;;1.00;;
17414;SDS011;8825;48.086;16.426;2022-11-02T20:00:00;6.00;;;1.90;;
17414;SDS011;8825;48.086;16.426;2022-11-02T20:02:28;0.53;;;0.53;;
17414;SDS011;8825;48.086;16.426;2022-11-02T20:04:56;0.77;;;0.53;;
17414;SDS011;8825;48.086;16.426;2022-11-02T20:07:26;0.40;;;0.40;;
17414;SDS011;8825;48.086;16.426;2022-11-02T20:09:53;0.50;;;0.50;;
17414;SDS011;8825;48.086;16.426;2022-11-02T20:12:21;0.50;;;0.50;;
17414;SDS011;8825;48.086;16.426;2022-11-02T20:14:48;0.50;;;0.50;;
17414;SDS011;8825;48.086;16.426;2022-11-02T20:17:16;0.90;;;0.90;;
17414;SDS011;8825;48.086;16.426;2022-11-02T20:19:43;0.40;;;0.40;;
17414;SDS011;8825;48.086;16.426;2022-11-02T20:22:11;0.50;;;0.50;;
17414;SDS011;8825;48.086;16.426;2022-11-02T20:24:38;3.20;;;1.00;;
17414;SDS011;8825;48.086;16.426;2022-11-02T20:27:06;0.67;;;0.67;;
17414;SDS011;8825;48.086;16.426;2022-11-02T20:29:33;0.73;;;0.73;;
17414;SDS011;8825;48.086;16.426;2022-11-02T20:32:01;0.40;;;0.40;;
17414;SDS011;8825;48.086;16.426;2022-11-02T20:34:29;0.50;;;0.50;;
17414;SDS011;8825;48.086;16.426;2022-11-02T20:36:56;0.83;;;0.83;;
17414;SDS011;8825;48.086;16.426;2022-11-02T20:39:24;0.97;;;0.97;;
17414;SDS011;8825;48.086;16.426;2022-11-02T20:41:51;0.43;;;0.43;;
17414;SDS011;8825;48.086;16.426;2022-11-02T20:44:20;0.80;;;0.80;;
17414;SDS011;8825;48.086;16.426;2022-11-02T20:46:48;0.40;;;0.40;;
17414;SDS011;8825;48.086;16.426;2022-11-02T20:49:16;0.40;;;0.40;;
17414;SDS011;8825;48.086;16.426;2022-11-02T20:51:43;4.37;;;0.73;;
17414;SDS011;8825;48.086;16.426;2022-11-02T20:54:11;0.60;;;0.60;;
17414;SDS011;8825;48.086;16.426;2022-11-02T20:56:39;0.87;;;0.87;;
17414;SDS011;8825;48.086;16.426;2022-11-02T20:59:07;0.67;;;0.67;;
17414;SDS011;8825;48.086;16.426;2022-11-02T21:01:34;0.80;;;0.80;;
17414;SDS011;8825;48.086;16.426;2022-11-02T21:04:02;0.77;;;0.77;;
17414;SDS011;8825;48.086;16.426;2022-11-02T21:06:29;5.03;;;2.97;;